Aviation Digital Data Service (ADDS)

Output produced by METARs form (0242 UTC 24 July 2017)
found at http://www.aviationweather.gov/adds/metars/
 
TAF TDPD 231700Z 2318/2418 10010KT 9999 SCT018